createdAt,value
2018-07-05T00:01:15.077Z,6.90
2018-07-05T00:03:54.815Z,8.08
2018-07-05T00:06:34.427Z,8.58
2018-07-05T00:09:14.301Z,8.60
2018-07-05T00:11:53.920Z,8.30
2018-07-05T00:14:33.916Z,9.20
2018-07-05T00:17:13.468Z,8.70
2018-07-05T00:19:53.207Z,9.13
2018-07-05T00:22:33.649Z,8.37
2018-07-05T00:25:13.364Z,9.43
2018-07-05T00:27:53.038Z,9.17
2018-07-05T00:30:32.638Z,9.57
2018-07-05T00:33:12.586Z,9.00
2018-07-05T00:35:52.247Z,9.97
2018-07-05T00:38:31.793Z,10.63
2018-07-05T00:41:11.499Z,10.58
2018-07-05T00:43:51.279Z,10.30
2018-07-05T00:46:30.839Z,8.37
2018-07-05T00:49:10.425Z,8.20
2018-07-05T00:51:51.218Z,9.60
2018-07-05T00:54:30.921Z,9.48
2018-07-05T00:57:10.728Z,9.18
2018-07-05T00:59:50.449Z,9.58
2018-07-05T01:02:30.130Z,9.60
2018-07-05T01:05:10.119Z,9.93
2018-07-05T01:07:49.887Z,9.98
2018-07-05T01:10:29.611Z,9.10
2018-07-05T01:13:09.328Z,10.93
2018-07-05T01:15:49.051Z,9.47
2018-07-05T01:18:28.864Z,9.87
2018-07-05T01:21:08.543Z,9.95
2018-07-05T01:23:48.068Z,9.77
2018-07-05T01:26:27.804Z,10.17
2018-07-05T01:29:07.482Z,9.60
2018-07-05T01:31:47.195Z,10.17
2018-07-05T01:34:26.939Z,9.90
2018-07-05T01:37:06.736Z,10.50
2018-07-05T01:39:46.538Z,9.10
2018-07-05T01:42:26.259Z,10.13
2018-07-05T01:45:06.003Z,9.75
2018-07-05T01:47:45.775Z,10.48
2018-07-05T01:50:25.389Z,9.13
2018-07-05T01:53:04.988Z,9.20
2018-07-05T01:55:44.634Z,10.07
2018-07-05T01:58:24.314Z,9.20
2018-07-05T02:01:03.884Z,8.73
2018-07-05T02:03:43.503Z,8.77
2018-07-05T02:06:23.930Z,8.70
2018-07-05T02:09:03.529Z,9.53
2018-07-05T02:11:43.078Z,9.97
2018-07-05T02:14:22.808Z,11.47
2018-07-05T02:17:02.478Z,10.10
2018-07-05T02:19:42.291Z,10.50
2018-07-05T02:22:22.054Z,11.00
2018-07-05T02:25:01.902Z,12.10
2018-07-05T02:27:41.691Z,10.65
2018-07-05T02:30:21.374Z,11.95
2018-07-05T02:33:01.234Z,10.83
2018-07-05T02:35:41.060Z,11.80
2018-07-05T02:38:22.560Z,12.67
2018-07-05T02:41:03.391Z,13.83
2018-07-05T02:43:42.961Z,12.97
2018-07-05T02:46:22.884Z,14.53
2018-07-05T02:48:56.653Z,14.03
2018-07-05T02:51:36.384Z,14.87
2018-07-05T02:54:16.269Z,14.50
2018-07-05T02:56:56.326Z,14.63
2018-07-05T02:59:36.025Z,15.60
2018-07-05T03:02:15.723Z,14.33
2018-07-05T03:04:55.564Z,15.13
2018-07-05T03:07:35.139Z,15.23
2018-07-05T03:10:14.796Z,14.33
2018-07-05T03:12:54.321Z,14.63
2018-07-05T03:15:34.248Z,14.60
2018-07-05T03:18:14.185Z,14.20
2018-07-05T03:20:54.032Z,14.07
2018-07-05T03:23:33.744Z,14.77
2018-07-05T03:26:13.632Z,14.93
2018-07-05T03:28:53.253Z,14.20
2018-07-05T03:31:32.911Z,14.83
2018-07-05T03:34:12.576Z,15.80
2018-07-05T03:36:52.299Z,14.97
2018-07-05T03:39:32.018Z,15.17
2018-07-05T03:42:11.631Z,15.75
2018-07-05T03:44:51.252Z,14.73
2018-07-05T03:47:30.943Z,15.17
2018-07-05T03:50:10.640Z,14.10
2018-07-05T03:52:50.297Z,13.50
2018-07-05T03:55:29.841Z,12.60
2018-07-05T03:58:09.595Z,13.87
2018-07-05T04:00:49.405Z,12.40
2018-07-05T04:03:29.088Z,12.33
2018-07-05T04:06:08.866Z,12.33
2018-07-05T04:08:48.666Z,12.70
2018-07-05T04:11:28.363Z,13.27
2018-07-05T04:14:08.011Z,12.55
2018-07-05T04:16:47.856Z,12.88
2018-07-05T04:19:27.747Z,12.90
2018-07-05T04:22:07.549Z,12.80
2018-07-05T04:24:47.191Z,13.60
2018-07-05T04:27:26.915Z,14.07
2018-07-05T04:30:06.600Z,14.50
2018-07-05T04:32:46.447Z,15.30
2018-07-05T04:35:26.197Z,15.33
2018-07-05T04:38:06.008Z,15.28
2018-07-05T04:40:45.627Z,12.78
2018-07-05T04:43:25.552Z,14.40
2018-07-05T04:46:05.257Z,14.93
2018-07-05T04:48:44.942Z,14.25
2018-07-05T04:51:24.603Z,14.17
2018-07-05T04:54:04.232Z,12.90
2018-07-05T04:56:43.877Z,13.20
2018-07-05T04:59:23.443Z,13.40
2018-07-05T05:02:03.093Z,12.90
2018-07-05T05:04:42.769Z,13.83
2018-07-05T05:07:22.394Z,14.23
2018-07-05T05:10:02.173Z,12.68
2018-07-05T05:12:41.793Z,13.32
2018-07-05T05:15:21.318Z,13.85
2018-07-05T05:18:01.275Z,13.67
2018-07-05T05:20:41.044Z,13.25
2018-07-05T05:23:20.713Z,12.58
2018-07-05T05:26:00.525Z,13.20
2018-07-05T05:28:40.351Z,15.25
2018-07-05T05:31:20.179Z,14.70
2018-07-05T05:34:00.330Z,14.00
2018-07-05T05:36:39.939Z,14.20
2018-07-05T05:39:20.361Z,14.98
2018-07-05T05:42:00.232Z,14.57
2018-07-05T05:44:39.966Z,15.25
2018-07-05T05:47:19.590Z,16.67
2018-07-05T05:50:00.026Z,16.17
2018-07-05T05:52:41.439Z,15.13
2018-07-05T05:55:21.042Z,14.00
2018-07-05T05:58:00.589Z,14.10
2018-07-05T06:00:43.097Z,15.83
2018-07-05T06:03:22.784Z,14.77
2018-07-05T06:06:03.687Z,14.50
2018-07-05T06:08:43.615Z,13.40
2018-07-05T06:11:23.255Z,14.20
2018-07-05T06:14:03.334Z,12.90
2018-07-05T06:16:43.190Z,12.30
2018-07-05T06:19:22.894Z,12.05
2018-07-05T06:22:02.775Z,12.50
2018-07-05T06:24:42.414Z,11.55
2018-07-05T06:27:22.065Z,13.70
2018-07-05T06:30:07.418Z,13.13
2018-07-05T06:32:47.098Z,13.50
2018-07-05T06:35:26.948Z,11.53
2018-07-05T06:38:10.468Z,12.77
2018-07-05T06:40:50.493Z,10.90
2018-07-05T06:43:30.249Z,12.55
2018-07-05T06:46:11.211Z,12.20
2018-07-05T06:48:51.633Z,12.00
2018-07-05T06:51:34.451Z,10.47
2018-07-05T06:54:14.826Z,11.60
2018-07-05T06:56:54.634Z,9.97
2018-07-05T06:59:34.305Z,10.20
2018-07-05T07:02:14.075Z,11.00
2018-07-05T07:04:53.691Z,10.10
2018-07-05T07:07:33.649Z,10.80
2018-07-05T07:10:13.540Z,12.80
2018-07-05T07:12:48.892Z,10.60
2018-07-05T07:15:29.240Z,11.38
2018-07-05T07:18:08.967Z,12.25
2018-07-05T07:20:48.705Z,10.65
2018-07-05T07:23:28.388Z,11.43
2018-07-05T07:26:07.943Z,10.95
2018-07-05T07:28:47.870Z,11.43
2018-07-05T07:31:27.727Z,10.30
2018-07-05T07:34:08.639Z,9.97
2018-07-05T07:36:48.432Z,9.10
2018-07-05T07:39:28.000Z,8.43
2018-07-05T07:41:55.376Z,7.90
2018-07-05T07:44:22.867Z,8.43
2018-07-05T07:46:50.221Z,6.75
2018-07-05T07:49:17.630Z,7.75
2018-07-05T07:51:44.978Z,8.17
2018-07-05T07:54:12.362Z,8.30
2018-07-05T07:56:40.403Z,8.20
2018-07-05T07:59:07.760Z,7.23
2018-07-05T08:01:35.254Z,7.37
2018-07-05T08:04:02.609Z,8.20
2018-07-05T08:06:29.966Z,7.07
2018-07-05T08:08:57.292Z,7.55
2018-07-05T08:11:24.815Z,5.70
2018-07-05T08:13:52.178Z,5.90
2018-07-05T08:16:19.525Z,5.40
2018-07-05T08:18:46.852Z,6.10
2018-07-05T08:21:14.196Z,6.50
2018-07-05T08:23:41.785Z,6.67
2018-07-05T08:26:09.169Z,6.28
2018-07-05T08:28:38.757Z,6.30
2018-07-05T08:31:06.186Z,5.70
2018-07-05T08:33:33.540Z,5.72
2018-07-05T08:36:01.152Z,6.70
2018-07-05T08:38:28.720Z,7.50
2018-07-05T08:40:56.085Z,6.50
2018-07-05T08:43:23.905Z,6.57
2018-07-05T08:45:51.268Z,6.60
2018-07-05T08:48:18.825Z,5.78
2018-07-05T08:50:46.187Z,6.92
2018-07-05T08:53:15.362Z,6.00
2018-07-05T08:55:42.741Z,5.28
2018-07-05T08:58:10.079Z,5.57
2018-07-05T09:00:37.617Z,5.27
2018-07-05T09:03:05.227Z,5.15
2018-07-05T09:05:32.619Z,4.92
2018-07-05T09:07:59.979Z,5.43
2018-07-05T09:10:27.364Z,4.80
2018-07-05T09:12:54.676Z,5.60
2018-07-05T09:15:22.048Z,6.00
2018-07-05T09:17:49.608Z,4.90
2018-07-05T09:20:16.758Z,4.60
2018-07-05T09:22:44.139Z,5.50
2018-07-05T09:25:11.477Z,5.10
2018-07-05T09:27:38.820Z,6.03
2018-07-05T09:30:06.160Z,5.57
2018-07-05T09:32:33.522Z,5.70
2018-07-05T09:35:00.882Z,5.30
2018-07-05T09:37:28.363Z,5.10
2018-07-05T09:39:59.765Z,5.53
2018-07-05T09:42:27.225Z,5.60
2018-07-05T09:44:54.590Z,5.30
2018-07-05T09:47:22.138Z,4.87
2018-07-05T09:49:49.546Z,4.40
2018-07-05T09:52:16.930Z,4.97
2018-07-05T09:54:44.299Z,4.53
2018-07-05T09:57:11.850Z,5.10
2018-07-05T09:59:39.273Z,4.22
2018-07-05T10:02:06.831Z,4.73
2018-07-05T10:04:34.194Z,4.87
2018-07-05T10:07:01.600Z,4.83
2018-07-05T10:09:29.097Z,4.40
2018-07-05T10:11:56.498Z,3.90
2018-07-05T10:14:23.986Z,4.70
2018-07-05T10:16:51.380Z,4.40
2018-07-05T10:19:19.317Z,4.73
2018-07-05T10:21:46.658Z,4.93
2018-07-05T10:24:13.968Z,4.37
2018-07-05T10:26:41.354Z,4.53
2018-07-05T10:29:20.963Z,4.33
2018-07-05T10:32:00.840Z,4.58
2018-07-05T10:34:28.177Z,4.90
2018-07-05T10:36:55.554Z,4.67
2018-07-05T10:39:22.970Z,4.80
2018-07-05T10:42:02.600Z,5.00
2018-07-05T10:44:42.289Z,4.20
2018-07-05T10:47:21.952Z,4.40
2018-07-05T10:50:01.703Z,3.90
2018-07-05T10:52:41.310Z,4.50
2018-07-05T10:55:21.349Z,4.20
2018-07-05T10:58:00.961Z,3.97
2018-07-05T11:00:41.102Z,4.50
2018-07-05T11:03:20.955Z,4.70
2018-07-05T11:06:00.625Z,4.80
2018-07-05T11:08:40.433Z,4.50
2018-07-05T11:11:20.312Z,4.90
2018-07-05T11:13:59.950Z,4.07
2018-07-05T11:16:40.112Z,4.67
2018-07-05T11:19:19.984Z,3.87
2018-07-05T11:21:59.746Z,4.77
2018-07-05T11:24:39.826Z,4.80
2018-07-05T11:27:19.963Z,4.83
2018-07-05T11:30:00.036Z,4.47
2018-07-05T11:32:39.829Z,4.87
2018-07-05T11:35:19.748Z,4.27
2018-07-05T11:37:59.528Z,4.80
2018-07-05T11:40:39.184Z,4.90
2018-07-05T11:43:19.110Z,3.80
2018-07-05T11:45:58.901Z,3.80
2018-07-05T11:48:38.567Z,4.27
2018-07-05T11:51:19.117Z,4.40
2018-07-05T11:53:58.882Z,4.27
2018-07-05T11:56:38.566Z,3.75
2018-07-05T11:59:18.073Z,4.10
2018-07-05T12:01:58.128Z,4.10
2018-07-05T12:04:37.885Z,3.43
2018-07-05T12:07:17.684Z,3.57
2018-07-05T12:09:57.408Z,4.23
2018-07-05T12:12:37.151Z,4.10
2018-07-05T12:15:16.813Z,3.70
2018-07-05T12:17:56.597Z,4.77
2018-07-05T12:20:36.679Z,3.95
2018-07-05T12:23:21.183Z,4.10
2018-07-05T12:26:00.994Z,4.50
2018-07-05T12:28:44.837Z,4.47
2018-07-05T12:31:19.152Z,4.22
2018-07-05T12:33:59.956Z,3.60
2018-07-05T12:36:43.486Z,4.80
2018-07-05T12:39:23.238Z,3.80
2018-07-05T12:42:04.008Z,4.17
2018-07-05T12:44:43.549Z,4.53
2018-07-05T12:47:24.374Z,4.50
2018-07-05T12:50:03.991Z,3.95
2018-07-05T12:52:43.720Z,4.07
2018-07-05T12:55:23.360Z,2.83
2018-07-05T12:58:03.116Z,2.77
2018-07-05T13:00:42.900Z,3.40
2018-07-05T13:03:22.556Z,3.50
2018-07-05T13:06:02.208Z,3.47
2018-07-05T13:08:41.784Z,3.07
2018-07-05T13:11:15.573Z,3.00
2018-07-05T13:13:55.267Z,3.60
2018-07-05T13:16:35.848Z,2.97
2018-07-05T13:19:15.774Z,3.60
2018-07-05T13:21:57.840Z,4.03
2018-07-05T13:24:37.469Z,3.50
2018-07-05T13:27:17.165Z,3.60
2018-07-05T13:29:56.966Z,3.43
2018-07-05T13:32:36.706Z,3.60
2018-07-05T13:35:16.504Z,3.72
2018-07-05T13:37:56.320Z,3.60
2018-07-05T13:40:36.229Z,3.90
2018-07-05T13:43:15.990Z,3.50
2018-07-05T13:45:55.916Z,3.03
2018-07-05T13:48:35.810Z,3.40
2018-07-05T13:51:15.721Z,3.43
2018-07-05T13:53:56.586Z,3.43
2018-07-05T13:56:36.499Z,4.20
2018-07-05T13:59:16.540Z,3.30
2018-07-05T14:01:56.395Z,3.57
2018-07-05T14:04:36.299Z,3.35
2018-07-05T14:07:16.015Z,3.70
2018-07-05T14:09:55.449Z,3.90
2018-07-05T14:12:35.037Z,3.47
2018-07-05T14:15:14.719Z,2.80
2018-07-05T14:17:54.388Z,3.83
2018-07-05T14:20:34.227Z,3.60
2018-07-05T14:23:13.972Z,2.77
2018-07-05T14:25:54.271Z,3.60
2018-07-05T14:28:34.012Z,3.70
2018-07-05T14:31:13.857Z,5.07
2018-07-05T14:33:53.684Z,3.95
2018-07-05T14:36:33.372Z,4.10
2018-07-05T14:39:13.075Z,4.20
2018-07-05T14:41:52.975Z,3.92
2018-07-05T14:44:32.683Z,3.75
2018-07-05T14:47:12.417Z,3.70
2018-07-05T14:49:52.051Z,4.07
2018-07-05T14:52:31.741Z,3.60
2018-07-05T14:55:11.375Z,3.30
2018-07-05T14:57:50.993Z,3.30
2018-07-05T15:00:30.674Z,3.20
2018-07-05T15:03:04.648Z,3.10
2018-07-05T15:05:44.266Z,3.00
2018-07-05T15:08:24.116Z,2.53
2018-07-05T15:11:03.921Z,3.00
2018-07-05T15:13:43.575Z,3.27
2018-07-05T15:16:23.191Z,3.07
2018-07-05T15:19:02.806Z,3.60
2018-07-05T15:21:42.503Z,2.83
2018-07-05T15:24:22.514Z,2.83
2018-07-05T15:27:01.989Z,3.27
2018-07-05T15:29:41.549Z,3.17
2018-07-05T15:32:21.223Z,3.40
2018-07-05T15:35:00.893Z,4.63
2018-07-05T15:37:40.463Z,3.50
2018-07-05T15:40:20.051Z,4.00
2018-07-05T15:42:59.506Z,4.42
2018-07-05T15:45:39.907Z,3.67
2018-07-05T15:48:19.964Z,4.30
2018-07-05T15:50:59.946Z,3.40
2018-07-05T15:53:39.805Z,3.80
2018-07-05T15:56:19.549Z,4.08
2018-07-05T15:58:59.273Z,4.37
2018-07-05T16:01:39.109Z,4.43
2018-07-05T16:04:18.892Z,3.98
2018-07-05T16:06:58.926Z,3.87
2018-07-05T16:09:38.650Z,4.07
2018-07-05T16:12:18.274Z,4.03
2018-07-05T16:14:58.044Z,4.63
2018-07-05T16:17:37.748Z,4.75
2018-07-05T16:20:17.437Z,4.05
2018-07-05T16:22:57.232Z,4.27
2018-07-05T16:25:37.032Z,5.10
2018-07-05T16:28:16.791Z,4.60
2018-07-05T16:30:56.700Z,5.15
2018-07-05T16:33:36.347Z,5.63
2018-07-05T16:36:16.035Z,6.70
2018-07-05T16:38:55.834Z,7.50
2018-07-05T16:41:35.595Z,8.00
2018-07-05T16:44:17.469Z,7.50
2018-07-05T16:46:57.110Z,7.73
2018-07-05T16:49:36.680Z,8.13
2018-07-05T16:52:16.514Z,7.90
2018-07-05T16:54:56.449Z,8.17
2018-07-05T16:57:39.805Z,7.37
2018-07-05T17:00:19.466Z,8.05
2018-07-05T17:02:59.210Z,7.92
2018-07-05T17:05:39.012Z,7.28
2018-07-05T17:08:18.899Z,8.35
2018-07-05T17:10:58.599Z,8.00
2018-07-05T17:13:38.189Z,8.40
2018-07-05T17:16:17.902Z,7.77
2018-07-05T17:18:57.854Z,7.13
2018-07-05T17:21:37.630Z,6.60
2018-07-05T17:24:17.447Z,6.60
2018-07-05T17:26:57.167Z,5.93
2018-07-05T17:29:37.851Z,7.70
2018-07-05T17:32:11.526Z,6.40
2018-07-05T17:34:51.050Z,6.33
2018-07-05T17:37:30.919Z,6.30
2018-07-05T17:40:10.536Z,7.63
2018-07-05T17:42:50.246Z,7.17
2018-07-05T17:45:29.935Z,6.30
2018-07-05T17:48:09.738Z,7.55
2018-07-05T17:50:49.663Z,6.50
2018-07-05T17:53:29.248Z,6.85
2018-07-05T17:56:09.870Z,7.03
2018-07-05T17:58:49.620Z,7.00
2018-07-05T18:01:29.370Z,7.80
2018-07-05T18:04:09.176Z,7.90
2018-07-05T18:06:48.776Z,8.13
2018-07-05T18:09:28.300Z,7.30
2018-07-05T18:12:08.024Z,7.97
2018-07-05T18:14:47.838Z,8.60
2018-07-05T18:17:27.560Z,7.93
2018-07-05T18:20:09.932Z,8.50
2018-07-05T18:22:49.582Z,8.03
2018-07-05T18:25:29.388Z,9.03
2018-07-05T18:28:09.230Z,9.08
2018-07-05T18:30:48.776Z,9.00
2018-07-05T18:33:28.511Z,9.60
2018-07-05T18:36:08.674Z,9.50
2018-07-05T18:38:58.543Z,9.90
2018-07-05T18:41:39.347Z,10.53
2018-07-05T18:44:26.018Z,98.65
2018-07-05T18:47:06.197Z,41.00
2018-07-05T18:49:46.206Z,14.90
2018-07-05T18:52:28.785Z,11.60
2018-07-05T18:55:08.664Z,9.83
2018-07-05T18:57:48.418Z,10.03
2018-07-05T19:00:28.124Z,9.70
2018-07-05T19:03:09.730Z,8.87
2018-07-05T19:05:49.471Z,9.63
2018-07-05T19:08:29.093Z,10.47
2018-07-05T19:11:08.814Z,10.47
2018-07-05T19:13:48.562Z,9.68
2018-07-05T19:16:28.422Z,10.40
2018-07-05T19:19:08.052Z,15.30
2018-07-05T19:21:47.800Z,10.17
2018-07-05T19:24:27.467Z,9.93
2018-07-05T19:27:07.203Z,9.03
2018-07-05T19:29:46.940Z,10.07
2018-07-05T19:32:26.839Z,9.53
2018-07-05T19:35:06.508Z,9.97
2018-07-05T19:37:46.240Z,9.73
2018-07-05T19:40:26.207Z,9.43
2018-07-05T19:43:05.809Z,10.40
2018-07-05T19:45:45.622Z,10.40
2018-07-05T19:48:25.285Z,10.83
2018-07-05T19:50:58.958Z,10.85
2018-07-05T19:53:38.998Z,10.80
2018-07-05T19:56:18.767Z,10.78
2018-07-05T19:58:58.451Z,10.38
2018-07-05T20:01:38.512Z,10.25
2018-07-05T20:04:18.390Z,10.23
2018-07-05T20:06:58.122Z,11.05
2018-07-05T20:09:37.749Z,11.00
2018-07-05T20:12:17.528Z,12.23
2018-07-05T20:14:57.276Z,12.43
2018-07-05T20:17:32.076Z,11.13
2018-07-05T20:20:11.926Z,11.37
2018-07-05T20:22:45.852Z,10.67
2018-07-05T20:25:19.750Z,10.90
2018-07-05T20:27:53.554Z,11.67
2018-07-05T20:30:27.532Z,12.03
2018-07-05T20:33:01.178Z,12.33
2018-07-05T20:35:35.063Z,11.80
2018-07-05T20:38:08.797Z,11.53
2018-07-05T20:40:42.508Z,12.10
2018-07-05T20:43:16.777Z,12.23
2018-07-05T20:45:50.527Z,12.20
2018-07-05T20:48:24.247Z,12.40
2018-07-05T20:50:58.977Z,11.50
2018-07-05T20:53:32.806Z,11.63
2018-07-05T20:56:06.542Z,12.03
2018-07-05T20:58:40.397Z,12.47
2018-07-05T21:01:13.960Z,12.17
2018-07-05T21:03:48.828Z,12.10
2018-07-05T21:06:23.157Z,12.67
2018-07-05T21:08:56.876Z,11.93
2018-07-05T21:11:30.548Z,11.93
2018-07-05T21:14:04.320Z,12.93
2018-07-05T21:16:37.989Z,12.17
2018-07-05T21:19:11.682Z,13.73
2018-07-05T21:21:45.463Z,14.30
2018-07-05T21:24:19.298Z,13.03
2018-07-05T21:26:52.916Z,12.77
2018-07-05T21:29:43.272Z,12.03
2018-07-05T21:32:17.167Z,10.98
2018-07-05T21:34:50.825Z,11.60
2018-07-05T21:37:24.553Z,10.87
2018-07-05T21:39:59.066Z,10.70
2018-07-05T21:42:32.851Z,11.40
2018-07-05T21:45:06.644Z,10.58
2018-07-05T21:47:40.226Z,11.10
2018-07-05T21:50:13.999Z,11.03
2018-07-05T21:52:47.795Z,9.97
2018-07-05T21:55:21.680Z,10.13
2018-07-05T21:57:55.487Z,10.40
2018-07-05T22:00:29.330Z,10.30
2018-07-05T22:03:02.996Z,11.17
2018-07-05T22:05:36.890Z,10.07
2018-07-05T22:08:10.587Z,9.70
2018-07-05T22:10:44.318Z,10.80
2018-07-05T22:36:31.479Z,11.30
2018-07-05T22:39:05.762Z,10.75
2018-07-05T22:41:39.515Z,10.80
2018-07-05T22:44:13.118Z,12.13
2018-07-05T22:46:46.720Z,12.27
2018-07-05T22:49:20.448Z,12.73
2018-07-05T22:51:54.220Z,12.20
2018-07-05T22:54:27.926Z,12.80
2018-07-05T22:57:01.550Z,11.83
2018-07-05T22:59:35.119Z,12.70
2018-07-05T23:02:08.895Z,12.67
2018-07-05T23:04:42.556Z,11.10
2018-07-05T23:07:16.427Z,12.27
2018-07-05T23:09:49.988Z,12.35
2018-07-05T23:12:24.539Z,11.03
2018-07-05T23:14:58.875Z,11.40
2018-07-05T23:17:32.408Z,11.27
2018-07-05T23:20:05.912Z,12.57
2018-07-05T23:22:39.556Z,12.57
2018-07-05T23:25:13.135Z,11.10
2018-07-05T23:27:47.175Z,12.63
2018-07-05T23:30:20.795Z,12.53
2018-07-05T23:32:54.557Z,14.38
2018-07-05T23:35:28.181Z,13.03
2018-07-05T23:38:01.907Z,13.50
2018-07-05T23:40:35.548Z,12.83
2018-07-05T23:43:09.245Z,14.40
2018-07-05T23:45:42.882Z,13.00
2018-07-05T23:48:16.502Z,14.00
2018-07-05T23:50:50.187Z,14.95
2018-07-05T23:53:23.975Z,12.37
2018-07-05T23:55:57.700Z,13.90
2018-07-05T23:58:31.411Z,13.63
